Time;durP1;ratioP1;P1;durP2;ratioP2;P2;SDS_P1;SDS_P2;PMS_P1;PMS_P2;Temp;Humidity;BMP_temperature;BMP_pressure;BME280_temperature;BME280_humidity;BME280_pressure;Samples;Min_cycle;Max_cycle;Signal;HPM_P1;HPM_P2
2023/07/17 00:02:04;;;;;;;8.00;5.17;;;21.70;54.60;;;;;;5216332;28;20802;-49
2023/07/17 00:04:36;;;;;;;9.53;5.80;;;21.70;54.40;;;;;;5221941;28;20236;-52
2023/07/17 00:07:07;;;;;;;9.50;5.80;;;21.70;54.30;;;;;;5223481;28;20209;-49
2023/07/17 00:09:37;;;;;;;6.83;5.63;;;21.70;54.30;;;;;;5205576;28;20450;-49
2023/07/17 00:12:08;;;;;;;12.30;5.90;;;21.70;54.40;;;;;;5215074;28;20206;-50
2023/07/17 00:14:39;;;;;;;9.20;4.23;;;21.70;54.60;;;;;;5217715;28;20222;-49
2023/07/17 00:17:09;;;;;;;10.23;3.77;;;21.70;54.10;;;;;;5220574;28;20199;-49
2023/07/17 00:19:40;;;;;;;3.77;3.40;;;21.70;53.70;;;;;;5215784;28;20179;-50
2023/07/17 00:22:11;;;;;;;4.93;3.83;;;21.70;53.70;;;;;;5203210;28;20206;-49
2023/07/17 00:24:41;;;;;;;6.47;4.00;;;21.70;54.10;;;;;;5207161;28;20220;-49
2023/07/17 00:27:12;;;;;;;4.27;3.87;;;21.70;54.20;;;;;;5222060;28;20289;-50
2023/07/17 00:29:44;;;;;;;9.03;4.00;;;21.70;54.30;;;;;;5200841;28;20195;-49
2023/07/17 00:32:15;;;;;;;3.80;3.50;;;21.60;54.40;;;;;;5207868;28;20222;-49
2023/07/17 00:34:46;;;;;;;3.63;3.33;;;21.60;54.70;;;;;;5227914;28;20417;-49
2023/07/17 00:37:16;;;;;;;5.97;4.20;;;21.50;54.60;;;;;;5225021;28;20459;-48
2023/07/17 00:39:48;;;;;;;7.10;4.30;;;21.50;54.70;;;;;;5221924;28;20179;-51
2023/07/17 00:42:18;;;;;;;4.70;3.23;;;21.50;54.80;;;;;;5222982;28;20269;-49
2023/07/17 00:44:49;;;;;;;3.87;3.50;;;21.50;54.80;;;;;;5221666;28;20540;-49
2023/07/17 00:47:20;;;;;;;4.20;3.13;;;21.50;54.80;;;;;;5220102;28;20234;-50
2023/07/17 00:49:50;;;;;;;6.43;3.23;;;21.50;55.00;;;;;;5208674;28;20205;-49
2023/07/17 00:52:21;;;;;;;8.80;3.60;;;21.50;54.80;;;;;;5209062;28;20297;-49
2023/07/17 00:54:52;;;;;;;4.17;2.60;;;21.50;54.80;;;;;;5222219;28;20682;-48
2023/07/17 00:57:25;;;;;;;3.13;2.93;;;21.50;55.20;;;;;;5207861;28;20871;-49
2023/07/17 00:59:56;;;;;;;2.93;2.73;;;21.50;55.30;;;;;;5220884;28;20436;-49
2023/07/17 01:02:26;;;;;;;5.83;2.60;;;21.40;55.30;;;;;;5220102;28;20827;-49
2023/07/17 01:04:57;;;;;;;7.83;3.00;;;21.50;55.30;;;;;;5222800;28;20240;-49
2023/07/17 01:07:28;;;;;;;5.00;3.53;;;21.50;55.20;;;;;;5223617;28;20290;-49
2023/07/17 01:09:58;;;;;;;5.53;3.17;;;21.40;55.30;;;;;;5206284;28;20188;-49
2023/07/17 01:12:30;;;;;;;2.77;2.57;;;21.40;55.40;;;;;;5229676;28;20207;-49
2023/07/17 01:15:00;;;;;;;3.80;3.50;;;21.40;55.60;;;;;;5226940;28;20191;-49
2023/07/17 01:17:31;;;;;;;5.17;3.40;;;21.40;55.80;;;;;;5207722;28;20480;-48
2023/07/17 01:20:05;;;;;;;7.83;4.03;;;21.30;55.50;;;;;;5206797;28;20176;-48
2023/07/17 01:22:48;;;;;;;3.80;3.40;;;21.30;55.60;;;;;;5223701;28;20191;-49
2023/07/17 01:25:19;;;;;;;6.70;3.50;;;21.30;55.60;;;;;;5224078;28;20471;-48
2023/07/17 01:27:49;;;;;;;3.97;2.90;;;21.30;55.80;;;;;;5222766;28;20456;-48
2023/07/17 01:30:20;;;;;;;2.77;2.60;;;21.30;55.80;;;;;;5218044;28;20187;-50
2023/07/17 01:32:51;;;;;;;4.53;3.40;;;21.30;55.60;;;;;;5227024;28;20202;-48
2023/07/17 01:35:21;;;;;;;3.80;3.37;;;21.30;55.50;;;;;;5205990;28;20540;-48
2023/07/17 01:37:52;;;;;;;5.63;2.80;;;21.30;55.50;;;;;;5224862;28;20458;-49
2023/07/17 01:40:22;;;;;;;5.30;3.40;;;21.30;55.60;;;;;;5220529;28;20203;-48
2023/07/17 01:42:53;;;;;;;5.37;3.03;;;21.30;55.60;;;;;;5210028;28;20658;-49
2023/07/17 01:45:24;;;;;;;3.10;2.80;;;21.30;55.70;;;;;;5227978;28;20179;-49
2023/07/17 01:47:54;;;;;;;4.13;3.70;;;21.30;55.60;;;;;;5226951;28;20195;-49
2023/07/17 01:50:25;;;;;;;2.90;2.70;;;21.30;55.40;;;;;;5218933;28;20183;-49
2023/07/17 01:52:56;;;;;;;8.23;2.33;;;21.30;55.40;;;;;;5225414;28;20199;-49
2023/07/17 01:55:27;;;;;;;5.20;2.60;;;21.30;55.70;;;;;;5206506;28;20229;-48
2023/07/17 01:57:58;;;;;;;2.83;2.43;;;21.30;56.00;;;;;;5208204;28;20532;-49
2023/07/17 02:00:29;;;;;;;3.13;2.70;;;21.30;56.10;;;;;;5211213;28;20190;-48
2023/07/17 02:02:59;;;;;;;5.70;3.73;;;21.30;56.40;;;;;;5224107;28;20473;-49
2023/07/17 02:05:30;;;;;;;5.13;3.00;;;21.20;56.10;;;;;;5214418;28;20466;-48
2023/07/17 02:08:02;;;;;;;3.30;3.00;;;21.20;56.20;;;;;;5234281;28;20210;-48
2023/07/17 02:10:33;;;;;;;8.87;3.20;;;21.20;56.70;;;;;;5224482;28;20816;-49
2023/07/17 02:13:04;;;;;;;3.60;3.30;;;21.10;56.90;;;;;;5222998;28;20453;-48
2023/07/17 02:15:34;;;;;;;3.00;2.80;;;21.10;56.80;;;;;;5205187;28;20240;-48
2023/07/17 02:18:05;;;;;;;4.20;3.27;;;21.10;57.00;;;;;;5193040;28;20175;-48
2023/07/17 02:20:35;;;;;;;5.30;4.40;;;21.10;57.40;;;;;;5216444;28;20604;-48
2023/07/17 02:23:06;;;;;;;3.47;2.77;;;21.10;57.30;;;;;;5224504;28;21389;-47
2023/07/17 02:25:37;;;;;;;3.60;2.90;;;21.00;57.00;;;;;;5202993;28;20198;-48
2023/07/17 02:28:07;;;;;;;7.50;2.90;;;21.00;57.00;;;;;;5225446;28;20288;-50
2023/07/17 02:30:38;;;;;;;3.40;2.87;;;21.00;57.10;;;;;;5220177;28;20190;-48
2023/07/17 02:33:09;;;;;;;9.40;3.10;;;20.90;57.10;;;;;;5224197;28;20198;-48
2023/07/17 02:35:39;;;;;;;3.40;3.07;;;20.90;57.20;;;;;;5205665;28;20192;-49
2023/07/17 02:38:10;;;;;;;6.60;3.67;;;20.80;57.20;;;;;;5209874;28;20202;-48
2023/07/17 02:40:40;;;;;;;4.10;3.10;;;20.80;57.40;;;;;;5221659;28;20209;-48
2023/07/17 02:43:11;;;;;;;4.93;2.43;;;20.70;57.90;;;;;;5220233;28;20261;-49
2023/07/17 02:45:41;;;;;;;3.67;3.03;;;20.60;58.20;;;;;;5213947;28;20206;-48
2023/07/17 02:48:12;;;;;;;8.83;3.37;;;20.40;58.30;;;;;;5221987;28;20579;-48
2023/07/17 02:50:43;;;;;;;3.60;3.37;;;20.30;58.90;;;;;;5222607;28;20183;-49
2023/07/17 02:53:13;;;;;;;3.33;3.13;;;20.20;59.10;;;;;;5206470;28;20223;-49
2023/07/17 02:55:44;;;;;;;4.57;3.57;;;20.10;59.20;;;;;;5200553;28;20206;-49
2023/07/17 02:58:20;;;;;;;2.77;2.53;;;20.00;59.70;;;;;;5201387;28;20187;-49
2023/07/17 03:00:50;;;;;;;2.70;2.60;;;20.00;59.70;;;;;;5201907;28;20187;-49
2023/07/17 03:03:21;;;;;;;4.30;3.23;;;19.90;59.60;;;;;;5220607;28;20445;-48
2023/07/17 03:05:56;;;;;;;4.03;3.00;;;19.90;60.20;;;;;;5211603;28;20195;-49
2023/07/17 03:08:27;;;;;;;7.97;4.03;;;19.90;59.70;;;;;;5204938;28;20230;-49
2023/07/17 03:11:03;;;;;;;3.03;2.80;;;19.90;59.60;;;;;;5219484;28;20977;-48
2023/07/17 03:13:33;;;;;;;6.83;3.40;;;19.90;59.40;;;;;;5203013;28;20277;-49
2023/07/17 03:16:04;;;;;;;5.67;3.30;;;19.90;59.40;;;;;;5201083;28;20494;-49
2023/07/17 03:18:35;;;;;;;3.37;3.07;;;19.90;59.70;;;;;;5223452;28;20182;-49
2023/07/17 03:21:05;;;;;;;6.00;3.50;;;19.90;59.80;;;;;;5223558;28;20175;-49
2023/07/17 03:23:36;;;;;;;5.57;3.13;;;19.90;59.60;;;;;;5221446;28;20843;-48
2023/07/17 03:26:07;;;;;;;4.93;3.30;;;19.90;59.60;;;;;;5218873;28;20214;-49
2023/07/17 03:28:37;;;;;;;6.10;3.60;;;19.90;59.70;;;;;;5214094;28;20191;-49
2023/07/17 03:31:08;;;;;;;7.53;4.30;;;19.90;59.60;;;;;;5210640;28;20191;-48
2023/07/17 03:33:39;;;;;;;3.50;3.17;;;19.90;59.90;;;;;;5214620;28;20677;-48
2023/07/17 03:36:09;;;;;;;5.80;3.13;;;20.00;60.00;;;;;;5204960;28;20758;-47
2023/07/17 03:38:40;;;;;;;2.90;2.70;;;20.00;60.10;;;;;;5204511;28;20206;-48
2023/07/17 03:41:11;;;;;;;5.03;3.40;;;20.10;60.20;;;;;;5217292;28;20179;-48
2023/07/17 03:43:42;;;;;;;3.37;3.03;;;20.10;60.00;;;;;;5224667;28;20426;-48
2023/07/17 03:46:13;;;;;;;3.73;3.30;;;20.10;59.80;;;;;;5224411;28;20586;-48
2023/07/17 03:48:44;;;;;;;3.67;3.37;;;20.10;60.00;;;;;;5206580;28;20187;-48
2023/07/17 03:51:14;;;;;;;6.60;3.13;;;20.00;60.10;;;;;;5225504;28;20515;-49
2023/07/17 03:53:45;;;;;;;4.60;3.20;;;20.00;60.50;;;;;;5223686;28;20282;-50
2023/07/17 03:56:16;;;;;;;11.53;3.80;;;20.00;60.60;;;;;;5225215;28;20264;-49
2023/07/17 03:58:47;;;;;;;4.97;2.67;;;20.10;60.60;;;;;;5224786;28;20187;-49
2023/07/17 04:01:18;;;;;;;3.97;2.90;;;20.10;60.60;;;;;;5210118;28;20481;-50
2023/07/17 04:03:49;;;;;;;3.67;3.37;;;20.40;60.30;;;;;;5226341;28;20502;-48
2023/07/17 04:06:19;;;;;;;7.60;3.20;;;20.60;59.90;;;;;;5210126;28;20199;-49
2023/07/17 04:08:50;;;;;;;3.80;3.10;;;20.60;59.60;;;;;;5202906;28;20489;-50
2023/07/17 04:11:20;;;;;;;3.23;2.80;;;20.80;58.90;;;;;;5205500;28;20191;-48
2023/07/17 04:13:52;;;;;;;4.03;3.47;;;20.90;58.20;;;;;;5229596;28;20261;-48
2023/07/17 04:16:26;;;;;;;3.83;3.53;;;21.00;58.30;;;;;;5220145;28;20337;-48
2023/07/17 04:18:57;;;;;;;7.97;3.90;;;21.10;58.00;;;;;;5208155;28;20433;-49
2023/07/17 04:21:27;;;;;;;3.57;3.27;;;21.10;57.80;;;;;;5223917;28;20432;-48
2023/07/17 04:23:58;;;;;;;3.10;2.63;;;21.20;57.70;;;;;;5206904;28;20179;-51
2023/07/17 04:26:29;;;;;;;3.90;3.60;;;21.30;57.10;;;;;;5228162;28;20264;-49
2023/07/17 04:29:00;;;;;;;5.97;3.10;;;21.40;56.90;;;;;;5227130;28;20426;-49
2023/07/17 04:31:32;;;;;;;3.27;2.90;;;21.40;56.70;;;;;;5223309;28;20186;-50
2023/07/17 04:34:02;;;;;;;4.07;3.70;;;21.30;56.80;;;;;;5206194;28;20214;-48
2023/07/17 04:36:33;;;;;;;3.77;3.07;;;21.30;56.90;;;;;;5210096;28;20460;-50
2023/07/17 04:39:04;;;;;;;5.13;3.60;;;21.30;57.00;;;;;;5226788;28;20258;-50
2023/07/17 04:41:35;;;;;;;5.10;3.30;;;21.50;57.00;;;;;;5224421;28;20191;-49
2023/07/17 04:44:05;;;;;;;3.53;3.20;;;21.60;56.80;;;;;;5225575;28;20482;-48
2023/07/17 04:46:36;;;;;;;5.90;3.80;;;21.70;56.40;;;;;;5223027;28;20218;-50
2023/07/17 04:49:07;;;;;;;4.97;3.90;;;21.70;56.90;;;;;;5210140;28;20667;-50
2023/07/17 04:51:37;;;;;;;6.70;3.50;;;21.70;56.40;;;;;;5220825;28;20187;-49
2023/07/17 04:54:08;;;;;;;3.50;3.20;;;21.80;56.30;;;;;;5214408;28;20322;-49
2023/07/17 04:56:39;;;;;;;3.00;2.80;;;22.10;56.10;;;;;;5222922;28;20222;-48
2023/07/17 04:59:09;;;;;;;7.27;3.00;;;22.80;55.30;;;;;;5209913;28;20689;-49
2023/07/17 05:01:40;;;;;;;7.40;3.23;;;23.70;54.00;;;;;;5195615;28;20289;-48
2023/07/17 05:04:10;;;;;;;3.77;3.30;;;24.50;52.30;;;;;;5210450;28;20588;-50
2023/07/17 05:06:41;;;;;;;5.60;3.70;;;25.10;50.80;;;;;;5208800;28;20202;-48
2023/07/17 05:09:12;;;;;;;4.13;3.73;;;25.60;49.30;;;;;;5207637;28;20175;-48
2023/07/17 05:11:44;;;;;;;3.40;2.73;;;25.90;48.30;;;;;;5205755;28;20191;-49
2023/07/17 05:14:14;;;;;;;10.30;2.90;;;25.80;48.20;;;;;;5209677;28;20207;-49
2023/07/17 05:16:45;;;;;;;5.47;3.13;;;25.60;48.70;;;;;;5224493;28;20514;-49
2023/07/17 05:19:16;;;;;;;3.57;2.70;;;25.30;48.80;;;;;;5227657;28;20183;-49
2023/07/17 05:21:46;;;;;;;8.80;3.63;;;24.80;49.30;;;;;;5218269;28;20183;-49
2023/07/17 05:24:17;;;;;;;3.40;3.10;;;24.60;49.90;;;;;;5209340;28;20654;-49
2023/07/17 05:26:48;;;;;;;3.00;2.80;;;24.10;50.50;;;;;;5201470;28;20214;-49
2023/07/17 05:29:19;;;;;;;6.97;3.83;;;23.80;51.20;;;;;;5210528;28;20430;-49
2023/07/17 05:31:49;;;;;;;28.73;4.17;;;23.50;51.40;;;;;;5223829;28;20670;-49
2023/07/17 05:34:20;;;;;;;7.70;3.40;;;23.10;51.70;;;;;;5206381;28;21077;-50
2023/07/17 05:36:50;;;;;;;8.20;3.57;;;23.70;52.40;;;;;;5222062;28;20212;-50
2023/07/17 05:39:21;;;;;;;4.27;3.77;;;25.90;49.50;;;;;;5225825;28;20635;-50
2023/07/17 05:41:51;;;;;;;9.60;4.07;;;28.30;45.00;;;;;;5226455;28;20192;-49
2023/07/17 05:44:22;;;;;;;4.73;3.70;;;30.50;41.30;;;;;;5227061;28;20663;-50
2023/07/17 05:46:53;;;;;;;4.43;2.90;;;31.90;38.80;;;;;;5207379;28;20273;-49
2023/07/17 05:49:23;;;;;;;3.20;3.10;;;32.80;36.90;;;;;;5225435;28;20183;-49
2023/07/17 05:51:54;;;;;;;4.30;3.37;;;33.90;34.70;;;;;;5220592;28;20198;-49
2023/07/17 05:54:24;;;;;;;3.03;2.50;;;34.70;34.00;;;;;;5202330;28;20565;-50
2023/07/17 05:56:55;;;;;;;3.30;3.10;;;35.70;32.30;;;;;;5219796;28;20264;-50
2023/07/17 05:59:26;;;;;;;3.53;3.23;;;36.40;30.90;;;;;;5205414;28;20182;-49
2023/07/17 06:01:56;;;;;;;3.30;3.00;;;36.80;30.20;;;;;;5220527;28;20592;-49
2023/07/17 06:04:27;;;;;;;3.33;3.03;;;37.50;29.60;;;;;;5225301;28;20190;-48
2023/07/17 06:06:58;;;;;;;3.03;2.70;;;37.30;29.10;;;;;;5222974;28;20257;-49
2023/07/17 06:09:28;;;;;;;2.80;2.70;;;37.50;29.30;;;;;;5219469;28;20178;-49
2023/07/17 06:11:59;;;;;;;4.55;2.85;;;37.90;28.80;;;;;;5198061;28;20186;-48
2023/07/17 06:14:29;;;;;;;3.20;2.65;;;37.80;28.10;;;;;;5212740;28;20183;-48
2023/07/17 06:17:00;;;;;;;2.92;2.72;;;38.40;28.00;;;;;;5205372;28;20332;-48
2023/07/17 06:19:31;;;;;;;9.82;3.10;;;38.90;27.70;;;;;;5213820;28;20174;-48
2023/07/17 06:22:02;;;;;;;3.20;2.95;;;39.10;27.40;;;;;;5215497;28;20571;-49
2023/07/17 06:24:33;;;;;;;3.63;3.17;;;39.60;27.20;;;;;;5218386;28;21768;-48
2023/07/17 06:27:03;;;;;;;3.00;2.80;;;39.20;27.00;;;;;;5221950;28;20199;-50
2023/07/17 06:29:36;;;;;;;2.97;2.78;;;39.20;26.60;;;;;;5222941;28;20592;-49
2023/07/17 06:32:08;;;;;;;8.85;3.20;;;39.20;26.60;;;;;;5217878;28;20232;-48
2023/07/17 06:34:41;;;;;;;4.35;3.60;;;39.80;26.20;;;;;;5217471;28;20503;-49
2023/07/17 06:37:12;;;;;;;5.40;3.15;;;39.60;26.10;;;;;;5224596;28;20304;-50
2023/07/17 06:39:42;;;;;;;4.47;4.00;;;38.90;26.70;;;;;;5226366;28;20186;-50
2023/07/17 06:42:13;;;;;;;4.90;3.40;;;38.20;27.00;;;;;;5223720;28;20595;-48
2023/07/17 06:44:44;;;;;;;3.60;3.30;;;36.60;27.90;;;;;;5209927;28;20228;-48
2023/07/17 06:47:14;;;;;;;2.65;2.55;;;34.70;29.50;;;;;;5229311;28;20198;-47
2023/07/17 06:49:45;;;;;;;4.30;3.33;;;33.10;31.10;;;;;;5197958;28;20229;-48
2023/07/17 06:52:15;;;;;;;3.10;2.80;;;31.90;32.70;;;;;;5226820;28;20178;-48
2023/07/17 06:54:46;;;;;;;3.07;2.87;;;30.90;34.30;;;;;;5216636;28;20209;-49
2023/07/17 06:57:17;;;;;;;5.30;3.23;;;29.60;35.70;;;;;;5213338;28;20217;-49
2023/07/17 06:59:48;;;;;;;3.13;2.93;;;28.90;37.70;;;;;;5200888;28;20212;-49
2023/07/17 07:02:18;;;;;;;7.83;3.17;;;30.10;37.00;;;;;;5225015;28;20642;-46
2023/07/17 07:04:50;;;;;;;3.43;2.67;;;33.00;33.30;;;;;;5205268;28;20456;-48
2023/07/17 07:07:21;;;;;;;4.87;3.40;;;35.30;30.60;;;;;;5215236;28;20202;-48
2023/07/17 07:09:51;;;;;;;3.20;2.90;;;37.10;28.40;;;;;;5224764;28;20182;-46
2023/07/17 07:12:22;;;;;;;2.58;2.53;;;38.10;27.30;;;;;;5216269;28;20197;-47
2023/07/17 07:14:53;;;;;;;4.78;3.38;;;38.90;26.60;;;;;;5222148;28;20241;-49
2023/07/17 07:17:23;;;;;;;4.28;3.10;;;38.70;26.70;;;;;;5223088;28;20254;-47
2023/07/17 07:19:54;;;;;;;3.88;2.80;;;39.40;26.10;;;;;;5222056;28;20177;-48
2023/07/17 07:22:25;;;;;;;5.15;3.75;;;39.90;25.50;;;;;;5224684;28;20186;-48
2023/07/17 07:24:55;;;;;;;5.30;3.35;;;39.70;25.70;;;;;;5219055;28;20190;-48
2023/07/17 07:27:26;;;;;;;3.08;2.80;;;38.90;25.70;;;;;;5221511;28;20203;-48
2023/07/17 07:29:57;;;;;;;3.50;3.20;;;37.60;26.90;;;;;;5219633;28;20649;-48
2023/07/17 07:32:27;;;;;;;2.80;2.60;;;37.80;27.00;;;;;;5215919;28;20210;-49
2023/07/17 07:34:58;;;;;;;7.13;3.53;;;38.90;26.20;;;;;;5229846;28;20185;-49
2023/07/17 07:37:29;;;;;;;3.63;2.97;;;40.10;25.30;;;;;;5228993;28;20603;-48
2023/07/17 07:39:59;;;;;;;10.00;3.28;;;40.30;24.40;;;;;;5227418;28;20191;-48
2023/07/17 07:42:30;;;;;;;8.13;2.78;;;40.20;24.60;;;;;;5205592;28;20179;-50
2023/07/17 07:45:00;;;;;;;5.03;2.60;;;40.20;24.60;;;;;;5205284;28;20244;-47
2023/07/17 07:47:32;;;;;;;3.63;3.25;;;40.30;24.30;;;;;;5206679;28;20202;-47
2023/07/17 07:50:03;;;;;;;3.72;2.90;;;40.10;24.80;;;;;;5185473;28;21978;-48
2023/07/17 07:52:34;;;;;;;7.55;2.92;;;40.20;24.70;;;;;;5222130;28;20198;-48
2023/07/17 07:55:05;;;;;;;4.43;3.05;;;40.60;24.40;;;;;;5223891;28;20236;-47
2023/07/17 07:57:35;;;;;;;3.30;3.05;;;41.30;24.00;;;;;;5209377;28;20747;-49
2023/07/17 08:00:07;;;;;;;5.13;3.55;;;41.60;24.00;;;;;;5208410;28;20190;-49
2023/07/17 08:02:37;;;;;;;6.80;3.30;;;41.40;23.10;;;;;;5212343;28;20700;-49
2023/07/17 08:05:10;;;;;;;3.33;2.78;;;40.60;23.90;;;;;;5218856;28;20213;-48
2023/07/17 08:07:40;;;;;;;8.10;4.88;;;40.80;23.90;;;;;;5202571;28;20194;-48
2023/07/17 08:10:11;;;;;;;5.97;2.92;;;41.10;23.90;;;;;;5223189;28;20182;-49
2023/07/17 08:12:41;;;;;;;5.18;2.38;;;41.10;23.70;;;;;;5218937;28;20226;-47
2023/07/17 08:15:12;;;;;;;4.85;3.17;;;41.30;23.70;;;;;;5203447;28;22112;-46
2023/07/17 08:17:43;;;;;;;7.00;3.47;;;40.80;23.30;;;;;;5215043;28;20191;-48
2023/07/17 08:20:13;;;;;;;4.70;2.83;;;39.30;24.10;;;;;;5189108;28;20344;-49
2023/07/17 08:22:44;;;;;;;3.08;2.80;;;39.50;24.60;;;;;;5218578;28;20189;-46
2023/07/17 08:25:14;;;;;;;2.80;2.60;;;39.70;24.40;;;;;;5218496;28;20256;-47
2023/07/17 08:27:45;;;;;;;3.33;3.10;;;38.50;24.60;;;;;;5204915;28;20341;-49
2023/07/17 08:30:16;;;;;;;3.40;3.10;;;38.40;25.30;;;;;;5214829;28;20191;-50
2023/07/17 08:32:46;;;;;;;2.33;2.20;;;38.90;25.10;;;;;;5219779;28;20210;-48
2023/07/17 08:35:17;;;;;;;3.78;2.90;;;39.30;24.50;;;;;;5217084;28;20189;-52
2023/07/17 08:37:47;;;;;;;4.50;3.35;;;39.00;24.50;;;;;;5203234;28;20285;-50
2023/07/17 08:40:18;;;;;;;3.78;3.28;;;38.70;24.80;;;;;;5224020;28;20178;-49
2023/07/17 08:42:51;;;;;;;2.65;2.47;;;38.30;25.10;;;;;;5208398;28;20612;-48
2023/07/17 08:45:24;;;;;;;4.30;2.95;;;37.70;25.70;;;;;;5221453;28;20198;-49
2023/07/17 08:47:55;;;;;;;4.15;3.05;;;37.30;26.40;;;;;;5223449;28;20175;-49
2023/07/17 08:50:28;;;;;;;7.35;3.15;;;36.30;26.70;;;;;;5211662;28;20720;-49
2023/07/17 08:53:00;;;;;;;4.63;3.22;;;35.90;27.10;;;;;;5215552;28;20202;-48
2023/07/17 08:55:31;;;;;;;6.22;2.80;;;34.80;28.10;;;;;;5214724;28;20197;-47
2023/07/17 08:58:03;;;;;;;3.75;2.80;;;34.10;28.60;;;;;;5231556;28;20266;-47
2023/07/17 09:00:35;;;;;;;6.10;3.10;;;32.40;30.10;;;;;;5212654;28;20247;-48
2023/07/17 09:03:06;;;;;;;11.63;2.67;;;30.90;31.60;;;;;;5214403;28;20700;-48
2023/07/17 09:05:37;;;;;;;4.50;2.60;;;30.10;32.90;;;;;;5214370;28;20637;-47
2023/07/17 09:08:07;;;;;;;5.03;3.10;;;29.70;33.60;;;;;;5215890;28;20182;-48
2023/07/17 09:10:39;;;;;;;2.70;2.50;;;29.30;33.70;;;;;;5207498;28;20254;-49
2023/07/17 09:13:11;;;;;;;3.50;2.40;;;29.30;34.40;;;;;;5209696;28;20233;-48
2023/07/17 09:15:41;;;;;;;21.07;4.00;;;29.20;33.80;;;;;;5228354;28;20426;-50
2023/07/17 09:18:12;;;;;;;5.67;2.33;;;29.20;34.10;;;;;;5225060;28;20451;-48
2023/07/17 09:20:43;;;;;;;5.00;2.60;;;29.10;34.80;;;;;;5231949;28;20187;-49
2023/07/17 09:23:13;;;;;;;4.50;2.50;;;29.20;34.50;;;;;;5223329;28;20568;-49
2023/07/17 09:25:47;;;;;;;4.00;2.50;;;29.10;34.60;;;;;;5223485;28;20244;-49
2023/07/17 09:28:18;;;;;;;6.13;3.00;;;29.20;34.90;;;;;;5208918;28;20214;-50
2023/07/17 09:31:00;;;;;;;4.77;4.00;;;29.10;34.60;;;;;;5226840;28;20437;-49
2023/07/17 09:33:36;;;;;;;9.90;3.20;;;28.90;34.80;;;;;;5227551;28;20465;-52
2023/07/17 09:36:10;;;;;;;7.57;2.70;;;28.70;35.40;;;;;;5223135;28;21178;-48
2023/07/17 09:38:41;;;;;;;9.03;3.27;;;28.70;35.10;;;;;;5221581;28;20913;-47
2023/07/17 09:41:20;;;;;;;9.10;2.50;;;28.70;34.70;;;;;;5205174;28;20429;-48
2023/07/17 09:44:04;;;;;;;3.47;2.03;;;28.60;34.60;;;;;;5222629;28;20179;-48
2023/07/17 09:46:37;;;;;;;12.73;4.13;;;28.50;34.80;;;;;;5219401;28;20530;-48
2023/07/17 09:49:07;;;;;;;5.57;3.00;;;28.50;35.00;;;;;;5219476;28;20440;-48
2023/07/17 09:51:38;;;;;;;3.70;3.40;;;28.50;34.80;;;;;;5222927;28;20928;-47
2023/07/17 09:54:10;;;;;;;5.73;3.27;;;28.40;35.20;;;;;;5225343;28;20199;-47
2023/07/17 09:56:41;;;;;;;7.20;3.83;;;28.40;35.30;;;;;;5208672;28;20211;-48
2023/07/17 09:59:18;;;;;;;3.10;2.33;;;28.30;34.90;;;;;;5226871;28;20497;-49
2023/07/17 10:01:52;;;;;;;2.57;2.40;;;28.30;35.10;;;;;;5223176;28;20472;-46
2023/07/17 10:04:38;;;;;;;7.70;3.27;;;28.20;34.90;;;;;;5205394;28;20447;-48
2023/07/17 10:07:12;;;;;;;5.33;3.87;;;28.00;35.90;;;;;;5221173;28;20445;-47
2023/07/17 10:09:45;;;;;;;9.00;4.00;;;28.10;35.20;;;;;;5210186;28;20969;-48
2023/07/17 10:12:19;;;;;;;4.37;2.83;;;28.10;35.30;;;;;;5228454;28;20468;-49
2023/07/17 10:14:51;;;;;;;7.03;3.50;;;28.20;35.20;;;;;;5228088;28;20432;-46
2023/07/17 10:17:32;;;;;;;30.80;6.50;;;28.10;35.00;;;;;;5216063;28;20449;-48
2023/07/17 10:20:07;;;;;;;19.10;10.90;;;27.90;34.90;;;;;;5224876;28;20445;-47
2023/07/17 10:22:46;;;;;;;5.73;4.43;;;27.80;35.30;;;;;;5208221;28;20437;-49
2023/07/17 10:25:19;;;;;;;7.77;2.90;;;27.80;35.00;;;;;;5224282;28;20447;-48
2023/07/17 10:28:08;;;;;;;4.83;2.60;;;27.80;34.60;;;;;;5205647;28;20453;-47
2023/07/17 10:30:39;;;;;;;3.77;2.57;;;27.90;35.10;;;;;;5221308;28;20442;-49
2023/07/17 10:33:14;;;;;;;2.50;2.30;;;27.80;35.50;;;;;;5206762;28;20476;-48
2023/07/17 10:36:00;;;;;;;5.40;3.10;;;27.80;35.90;;;;;;5209232;28;20826;-48
2023/07/17 10:38:36;;;;;;;4.70;3.33;;;28.00;35.40;;;;;;5229445;28;20433;-47
2023/07/17 10:41:12;;;;;;;3.37;3.00;;;28.40;35.20;;;;;;5208446;28;20503;-49
2023/07/17 10:44:06;;;;;;;4.70;3.00;;;28.40;35.00;;;;;;5224164;28;20441;-48
2023/07/17 10:46:38;;;;;;;3.90;2.50;;;28.20;35.30;;;;;;5205893;28;20457;-49
2023/07/17 10:49:16;;;;;;;3.50;2.70;;;28.20;35.00;;;;;;5221470;28;20429;-49
2023/07/17 10:51:49;;;;;;;6.23;3.10;;;28.50;34.40;;;;;;5228716;28;21075;-50
2023/07/17 10:54:19;;;;;;;5.97;3.07;;;28.80;33.60;;;;;;5228266;28;20464;-50
2023/07/17 10:56:50;;;;;;;7.30;3.47;;;29.00;33.40;;;;;;5246516;22;20567;-45
2023/07/17 10:59:22;;;;;;;5.67;3.87;;;29.10;33.60;;;;;;5244409;28;20178;-46
2023/07/17 11:02:01;;;;;;;4.13;3.57;;;29.20;33.30;;;;;;5240810;28;20249;-45
2023/07/17 11:04:33;;;;;;;9.57;2.83;;;29.30;33.80;;;;;;5239328;28;20554;-44
2023/07/17 11:07:08;;;;;;;3.80;2.13;;;29.20;33.00;;;;;;5234713;28;20555;-45
2023/07/17 11:09:44;;;;;;;5.93;2.73;;;29.10;32.90;;;;;;5232184;28;20438;-43
2023/07/17 11:12:16;;;;;;;6.90;1.90;;;28.90;32.90;;;;;;5201783;28;20855;-45
2023/07/17 11:14:54;;;;;;;10.63;3.37;;;28.70;32.80;;;;;;5228828;28;20476;-45
2023/07/17 11:17:25;;;;;;;3.40;3.10;;;28.40;33.50;;;;;;5225275;28;20444;-44
2023/07/17 11:20:03;;;;;;;31.00;4.03;;;28.40;34.30;;;;;;5213784;28;20540;-44
2023/07/17 11:22:34;;;;;;;4.40;3.20;;;28.40;34.80;;;;;;5229499;28;20194;-44
2023/07/17 11:25:05;;;;;;;7.67;2.87;;;28.20;35.20;;;;;;5231663;28;20437;-43
2023/07/17 11:27:38;;;;;;;4.17;2.57;;;28.20;35.50;;;;;;5211238;28;20485;-44
2023/07/17 11:30:18;;;;;;;6.20;3.40;;;28.20;35.30;;;;;;5226743;28;20471;-44
2023/07/17 11:32:59;;;;;;;6.00;2.90;;;28.10;35.50;;;;;;5235504;28;20969;-44
2023/07/17 11:35:47;;;;;;;7.03;4.10;;;28.30;35.00;;;;;;5233988;28;20441;-45
2023/07/17 11:38:19;;;;;;;3.03;2.60;;;28.30;34.10;;;;;;5219128;28;20430;-44
2023/07/17 11:40:53;;;;;;;5.00;3.80;;;28.30;33.70;;;;;;5219541;28;20965;-46
2023/07/17 11:43:41;;;;;;;6.60;3.50;;;28.30;33.50;;;;;;5201313;28;20444;-44
2023/07/17 11:46:13;;;;;;;2.83;2.27;;;28.20;32.80;;;;;;5220703;28;20456;-45
2023/07/17 11:48:44;;;;;;;3.50;2.50;;;28.30;33.10;;;;;;5224520;28;20461;-43
2023/07/17 11:51:14;;;;;;;4.00;2.43;;;28.40;33.70;;;;;;5209156;28;20605;-45
2023/07/17 11:53:52;;;;;;;3.60;2.30;;;28.60;33.40;;;;;;5224494;28;20201;-46
2023/07/17 11:56:34;;;;;;;7.03;2.10;;;28.70;32.50;;;;;;5219614;28;20288;-45
2023/07/17 11:59:06;;;;;;;23.73;2.60;;;28.60;31.90;;;;;;5218000;28;20449;-45
2023/07/17 12:01:37;;;;;;;4.77;2.17;;;28.60;31.80;;;;;;5223840;28;21023;-45
2023/07/17 12:04:19;;;;;;;5.10;2.77;;;28.60;31.10;;;;;;5194187;28;20453;-45
2023/07/17 12:06:52;;;;;;;5.23;2.23;;;28.20;31.00;;;;;;5208759;28;20202;-45
2023/07/17 12:09:23;;;;;;;3.60;1.97;;;28.00;31.10;;;;;;5232077;28;20506;-43
2023/07/17 12:11:54;;;;;;;4.67;2.10;;;28.00;31.80;;;;;;5207895;28;20528;-44
2023/07/17 12:14:24;;;;;;;2.13;1.93;;;28.10;32.20;;;;;;5217932;28;20204;-44
2023/07/17 12:16:55;;;;;;;3.63;2.50;;;28.00;32.20;;;;;;5231238;28;20203;-44
2023/07/17 12:19:26;;;;;;;4.33;3.00;;;27.90;32.60;;;;;;5218092;28;20545;-46
2023/07/17 12:21:56;;;;;;;2.70;2.50;;;27.80;33.00;;;;;;5215744;28;20233;-44
2023/07/17 12:24:27;;;;;;;2.43;1.60;;;27.90;32.10;;;;;;5228153;28;20190;-45
2023/07/17 12:26:57;;;;;;;6.10;2.50;;;28.20;31.50;;;;;;5225123;28;20202;-45
2023/07/17 12:29:28;;;;;;;2.87;2.23;;;28.10;31.40;;;;;;5220848;28;20186;-45
2023/07/17 12:31:59;;;;;;;4.70;2.00;;;28.00;30.60;;;;;;5225018;28;20187;-44
2023/07/17 12:34:29;;;;;;;2.70;2.00;;;27.80;31.20;;;;;;5227886;28;20233;-45
2023/07/17 12:37:00;;;;;;;5.93;2.40;;;27.90;32.00;;;;;;5213758;28;20698;-45
2023/07/17 12:39:31;;;;;;;4.67;2.53;;;28.10;31.50;;;;;;5218189;28;20175;-45
2023/07/17 12:42:01;;;;;;;5.27;3.10;;;28.40;31.60;;;;;;5214483;28;20182;-45
2023/07/17 12:44:33;;;;;;;4.47;2.83;;;28.60;31.40;;;;;;5235103;28;20266;-45
2023/07/17 12:47:04;;;;;;;3.23;2.23;;;28.60;29.60;;;;;;5239466;28;20676;-45
2023/07/17 12:49:34;;;;;;;2.17;1.97;;;28.40;29.90;;;;;;5235505;28;20440;-44
2023/07/17 12:52:05;;;;;;;3.53;2.93;;;28.20;30.40;;;;;;5229791;28;20187;-45
2023/07/17 12:54:36;;;;;;;2.63;2.43;;;28.20;31.30;;;;;;5212958;28;20209;-44
2023/07/17 12:57:06;;;;;;;2.23;2.10;;;28.40;30.90;;;;;;5229280;28;20218;-46
2023/07/17 12:59:37;;;;;;;1.97;1.87;;;28.50;29.90;;;;;;5227458;28;20513;-44
2023/07/17 13:02:09;;;;;;;9.10;2.80;;;28.50;30.00;;;;;;5227277;28;20191;-45
2023/07/17 13:04:39;;;;;;;5.60;2.10;;;28.60;30.40;;;;;;5231813;28;20178;-46
2023/07/17 13:07:10;;;;;;;6.20;2.77;;;28.80;29.90;;;;;;5212321;28;20456;-45
2023/07/17 13:09:40;;;;;;;2.23;2.03;;;28.60;28.90;;;;;;5214187;28;20183;-45